createdAt,value
2022-08-12T00:00:08.039Z,43.67
2022-08-12T00:01:08.041Z,42.54
2022-08-12T00:02:07.990Z,41.89
2022-08-12T00:03:08.117Z,42.06
2022-08-12T00:04:08.020Z,41.57
2022-08-12T00:05:08.024Z,41.57
2022-08-12T00:06:08.101Z,41.73
2022-08-12T00:07:07.976Z,42.06
2022-08-12T00:08:08.044Z,41.73
2022-08-12T00:09:07.938Z,43.18
2022-08-12T00:10:07.994Z,42.22
2022-08-12T00:11:08.636Z,41.41
2022-08-12T00:12:07.965Z,41.41
2022-08-12T00:13:07.973Z,41.25
2022-08-12T00:14:07.948Z,41.09
2022-08-12T00:15:07.930Z,40.44
2022-08-12T00:16:07.973Z,40.93
2022-08-12T00:17:07.959Z,40.93
2022-08-12T00:18:07.988Z,40.93
2022-08-12T00:19:07.890Z,41.57
2022-08-12T00:20:07.885Z,41.25
2022-08-12T00:21:07.924Z,41.41
2022-08-12T00:22:07.978Z,41.57
2022-08-12T00:23:07.898Z,43.99
2022-08-12T00:24:08.892Z,42.86
2022-08-12T00:25:07.870Z,42.06
2022-08-12T00:26:23.208Z,41.41
2022-08-12T00:27:08.941Z,41.89
2022-08-12T00:28:07.931Z,41.89
2022-08-12T00:29:07.839Z,41.57
2022-08-12T00:30:07.878Z,41.41
2022-08-12T00:31:07.919Z,41.25
2022-08-12T00:32:07.880Z,40.93
2022-08-12T00:33:08.880Z,41.25
2022-08-12T00:34:07.833Z,41.41
2022-08-12T00:35:08.610Z,41.41
2022-08-12T00:36:07.842Z,42.06
2022-08-12T00:37:13.251Z,41.89
2022-08-12T00:38:08.832Z,41.09
2022-08-12T00:39:07.806Z,41.09
2022-08-12T00:40:11.365Z,40.93
2022-08-12T00:41:07.768Z,40.93
2022-08-12T00:42:07.769Z,41.09
2022-08-12T00:43:07.760Z,41.73
2022-08-12T00:44:07.789Z,43.02
2022-08-12T00:45:07.842Z,43.18
2022-08-12T00:46:07.732Z,41.73
2022-08-12T00:47:07.737Z,42.54
2022-08-12T00:48:08.723Z,41.73
2022-08-12T00:49:07.779Z,41.73
2022-08-12T00:50:07.709Z,41.57
2022-08-12T00:51:07.781Z,41.41
2022-08-12T00:52:07.712Z,41.73
2022-08-12T00:53:07.714Z,41.41
2022-08-12T00:54:07.722Z,41.25
2022-08-12T00:55:07.748Z,41.09
2022-08-12T00:56:07.697Z,41.57
2022-08-12T00:57:07.688Z,41.41
2022-08-12T00:58:07.694Z,41.41
2022-08-12T00:59:07.713Z,41.09
2022-08-12T01:00:07.698Z,41.25
2022-08-12T01:01:07.840Z,41.41
2022-08-12T01:02:11.108Z,41.73
2022-08-12T01:03:07.658Z,42.22
2022-08-12T01:04:07.653Z,42.06
2022-08-12T01:05:07.648Z,41.73
2022-08-12T01:06:07.719Z,41.89
2022-08-12T01:07:07.680Z,42.70
2022-08-12T01:08:07.619Z,42.70
2022-08-12T01:09:07.595Z,41.57
2022-08-12T01:10:07.617Z,41.73
2022-08-12T01:11:07.609Z,42.22
2022-08-12T01:12:07.569Z,42.06
2022-08-12T01:13:18.976Z,41.25
2022-08-12T01:14:08.603Z,41.25
2022-08-12T01:15:07.601Z,41.41
2022-08-12T01:16:07.569Z,41.57
2022-08-12T01:17:07.600Z,41.57
2022-08-12T01:18:07.536Z,41.73
2022-08-12T01:19:07.581Z,42.06
2022-08-12T01:20:07.518Z,42.22
2022-08-12T01:21:07.525Z,42.70
2022-08-12T01:22:07.553Z,42.06
2022-08-12T01:23:07.521Z,41.89
2022-08-12T01:24:29.893Z,41.89
2022-08-12T01:25:08.508Z,42.06
2022-08-12T01:26:07.500Z,41.89
2022-08-12T01:27:08.006Z,41.89
2022-08-12T01:28:07.480Z,42.22
2022-08-12T01:29:07.489Z,42.70
2022-08-12T01:30:07.471Z,43.83
2022-08-12T01:31:07.447Z,42.86
2022-08-12T01:32:07.458Z,42.38
2022-08-12T01:33:07.445Z,42.38
2022-08-12T01:34:28.703Z,43.34
2022-08-12T01:35:08.483Z,43.51
2022-08-12T01:36:07.738Z,42.70
2022-08-12T01:37:08.468Z,42.38
2022-08-12T01:38:07.447Z,42.70
2022-08-12T01:39:07.410Z,42.70
2022-08-12T01:40:34.041Z,42.70
2022-08-12T01:41:08.406Z,43.18
2022-08-12T01:42:07.371Z,43.67
2022-08-12T01:43:07.377Z,42.86
2022-08-12T01:44:07.380Z,43.34
2022-08-12T01:45:07.406Z,42.86
2022-08-12T01:46:07.368Z,43.18
2022-08-12T01:47:07.356Z,43.02
2022-08-12T01:48:07.342Z,42.70
2022-08-12T01:49:07.327Z,43.51
2022-08-12T01:50:07.417Z,45.28
2022-08-12T01:51:07.698Z,44.15
2022-08-12T01:52:21.120Z,44.15
2022-08-12T01:53:08.312Z,45.12
2022-08-12T01:54:07.334Z,44.15
2022-08-12T01:55:07.356Z,42.86
2022-08-12T01:56:07.404Z,42.70
2022-08-12T01:57:07.304Z,43.02
2022-08-12T01:58:07.350Z,42.86
2022-08-12T01:59:07.340Z,43.02
2022-08-12T02:00:08.284Z,43.02
2022-08-12T02:01:07.391Z,42.86
2022-08-12T02:02:07.269Z,42.54
2022-08-12T02:03:07.264Z,43.02
2022-08-12T02:04:07.247Z,42.70
2022-08-12T02:05:07.262Z,42.70
2022-08-12T02:06:07.312Z,42.86
2022-08-12T02:07:07.282Z,42.70
2022-08-12T02:08:07.222Z,42.86
2022-08-12T02:09:07.234Z,43.02
2022-08-12T02:10:07.244Z,42.70
2022-08-12T02:11:07.200Z,42.38
2022-08-12T02:12:08.519Z,42.70
2022-08-12T02:13:07.227Z,43.34
2022-08-12T02:14:07.215Z,43.67
2022-08-12T02:15:07.265Z,43.51
2022-08-12T02:16:07.155Z,42.22
2022-08-12T02:17:07.226Z,42.70
2022-08-12T02:18:07.177Z,42.54
2022-08-12T02:19:22.146Z,42.06
2022-08-12T02:20:08.183Z,42.38
2022-08-12T02:21:07.187Z,42.06
2022-08-12T02:22:07.201Z,41.41
2022-08-12T02:23:07.282Z,41.73
2022-08-12T02:24:07.212Z,41.57
2022-08-12T02:25:07.079Z,54.79
2022-08-12T02:26:07.605Z,54.95
2022-08-12T02:27:07.090Z,55.43
2022-08-12T02:28:08.029Z,55.59
2022-08-12T02:29:07.216Z,43.18
2022-08-12T02:30:07.058Z,43.02
2022-08-12T02:31:07.108Z,42.22
2022-08-12T02:32:07.043Z,42.38
2022-08-12T02:33:07.056Z,42.54
2022-08-12T02:34:07.050Z,42.54
2022-08-12T02:35:07.039Z,42.70
2022-08-12T02:36:07.070Z,44.15
2022-08-12T02:37:07.036Z,43.99
2022-08-12T02:38:07.073Z,43.51
2022-08-12T02:39:07.052Z,42.38
2022-08-12T02:40:07.027Z,42.86
2022-08-12T02:41:07.043Z,43.02
2022-08-12T02:42:07.020Z,43.02
2022-08-12T02:43:07.043Z,42.54
2022-08-12T02:44:07.001Z,43.18
2022-08-12T02:45:06.979Z,44.31
2022-08-12T02:46:10.476Z,43.51
2022-08-12T02:47:59.980Z,43.02
2022-08-12T02:48:08.001Z,44.47
2022-08-12T02:49:07.001Z,43.99
2022-08-12T02:50:06.929Z,43.02
2022-08-12T02:51:06.963Z,42.06
2022-08-12T02:52:06.948Z,42.38
2022-08-12T02:53:06.912Z,42.06
2022-08-12T02:54:06.939Z,42.22
2022-08-12T02:55:06.929Z,42.70
2022-08-12T02:56:06.888Z,43.18
2022-08-12T02:57:06.909Z,42.22
2022-08-12T02:58:09.219Z,42.86
2022-08-12T02:59:07.953Z,43.18
2022-08-12T03:00:06.874Z,42.86
2022-08-12T03:01:06.935Z,43.34
2022-08-12T03:02:06.880Z,43.67
2022-08-12T03:03:06.890Z,44.47
2022-08-12T03:04:06.870Z,46.08
2022-08-12T03:05:07.826Z,45.44
2022-08-12T03:06:06.846Z,45.28
2022-08-12T03:07:06.844Z,43.99
2022-08-12T03:08:06.806Z,44.96
2022-08-12T03:09:09.393Z,43.51
2022-08-12T03:10:07.132Z,43.18
2022-08-12T03:11:11.971Z,44.15
2022-08-12T03:12:07.781Z,43.99
2022-08-12T03:13:06.827Z,43.83
2022-08-12T03:14:06.788Z,44.47
2022-08-12T03:15:06.846Z,43.51
2022-08-12T03:16:06.810Z,43.18
2022-08-12T03:17:06.770Z,42.70
2022-08-12T03:18:24.741Z,43.83
2022-08-12T03:19:07.748Z,44.47
2022-08-12T03:20:09.423Z,44.15
2022-08-12T03:21:06.813Z,43.83
2022-08-12T03:22:09.622Z,43.99
2022-08-12T03:23:06.736Z,45.12
2022-08-12T03:24:06.705Z,45.28
2022-08-12T03:25:06.758Z,45.60
2022-08-12T03:26:06.738Z,44.79
2022-08-12T03:27:06.726Z,46.25
2022-08-12T03:28:06.678Z,44.96
2022-08-12T03:29:06.779Z,43.67
2022-08-12T03:30:06.725Z,43.83
2022-08-12T03:31:06.715Z,42.22
2022-08-12T03:32:06.706Z,44.47
2022-08-12T03:33:06.686Z,44.47
2022-08-12T03:34:06.679Z,44.79
2022-08-12T03:35:06.658Z,44.15
2022-08-12T03:36:06.676Z,46.89
2022-08-12T03:37:06.635Z,44.96
2022-08-12T03:38:08.085Z,44.31
2022-08-12T03:39:06.598Z,44.63
2022-08-12T03:40:06.668Z,44.31
2022-08-12T03:41:06.643Z,44.15
2022-08-12T03:42:06.623Z,45.28
2022-08-12T03:43:06.661Z,44.96
2022-08-12T03:44:07.593Z,46.73
2022-08-12T03:45:06.570Z,45.76
2022-08-12T03:46:06.622Z,45.60
2022-08-12T03:47:06.665Z,46.25
2022-08-12T03:48:06.590Z,45.28
2022-08-12T03:49:06.567Z,46.25
2022-08-12T03:50:06.521Z,47.37
2022-08-12T03:51:06.574Z,47.70
2022-08-12T03:52:06.541Z,46.73
2022-08-12T03:53:06.547Z,47.70
2022-08-12T03:54:06.540Z,47.05
2022-08-12T03:55:06.487Z,45.76
2022-08-12T03:56:06.520Z,45.60
2022-08-12T03:57:06.488Z,45.76
2022-08-12T03:58:06.497Z,45.76
2022-08-12T03:59:06.472Z,44.79
2022-08-12T04:00:07.504Z,46.73
2022-08-12T04:01:06.548Z,47.53
2022-08-12T04:02:06.545Z,45.76
2022-08-12T04:03:08.771Z,46.73
2022-08-12T04:04:08.676Z,46.25
2022-08-12T04:05:07.043Z,47.86
2022-08-12T04:06:06.480Z,45.28
2022-08-12T04:07:06.431Z,45.60
2022-08-12T04:08:06.451Z,45.76
2022-08-12T04:09:15.042Z,47.86
2022-08-12T04:10:07.416Z,47.37
2022-08-12T04:11:06.482Z,46.57
2022-08-12T04:12:06.454Z,46.73
2022-08-12T04:13:06.416Z,47.70
2022-08-12T04:14:06.364Z,47.05
2022-08-12T04:15:06.379Z,47.86
2022-08-12T04:16:06.378Z,48.34
2022-08-12T04:17:06.417Z,46.73
2022-08-12T04:18:08.013Z,47.70
2022-08-12T04:19:06.317Z,47.86
2022-08-12T04:20:06.306Z,47.37
2022-08-12T04:21:06.319Z,48.34
2022-08-12T04:22:06.368Z,47.70
2022-08-12T04:23:06.332Z,47.21
2022-08-12T04:24:06.370Z,47.05
2022-08-12T04:25:06.295Z,47.05
2022-08-12T04:26:06.297Z,46.57
2022-08-12T04:27:06.277Z,46.25
2022-08-12T04:28:11.215Z,46.25
2022-08-12T04:29:07.249Z,44.96
2022-08-12T04:30:31.511Z,47.21
2022-08-12T04:31:07.265Z,48.18
2022-08-12T04:32:06.211Z,48.18
2022-08-12T04:33:06.260Z,49.79
2022-08-12T04:34:06.271Z,47.86
2022-08-12T04:35:06.257Z,47.37
2022-08-12T04:36:06.229Z,46.08
2022-08-12T04:37:06.258Z,47.21
2022-08-12T04:38:06.221Z,45.92
2022-08-12T04:39:06.208Z,47.21
2022-08-12T04:40:06.239Z,44.47
2022-08-12T04:41:06.199Z,45.12
2022-08-12T04:42:06.165Z,45.76
2022-08-12T04:43:06.159Z,45.92
2022-08-12T04:44:07.165Z,46.89
2022-08-12T04:45:06.197Z,45.76
2022-08-12T04:46:06.173Z,48.18
2022-08-12T04:47:06.178Z,46.41
2022-08-12T04:48:06.152Z,46.89
2022-08-12T04:49:06.137Z,44.15
2022-08-12T04:50:34.435Z,44.31
2022-08-12T04:51:07.143Z,44.63
2022-08-12T04:52:06.135Z,45.28
2022-08-12T04:53:06.119Z,43.67
2022-08-12T04:54:06.111Z,44.15
2022-08-12T04:55:06.092Z,44.96
2022-08-12T04:56:06.137Z,47.53
2022-08-12T04:57:06.147Z,44.31
2022-08-12T04:58:06.081Z,44.96
2022-08-12T04:59:06.154Z,45.12
2022-08-12T05:00:06.056Z,47.37
2022-08-12T05:01:06.070Z,43.83
2022-08-12T05:02:09.571Z,48.34
2022-08-12T05:03:07.096Z,45.92
2022-08-12T05:04:06.047Z,47.70
2022-08-12T05:05:06.029Z,43.18
2022-08-12T05:06:06.059Z,44.79
2022-08-12T05:07:06.006Z,46.73
2022-08-12T05:08:06.005Z,42.54
2022-08-12T05:09:11.105Z,45.12
2022-08-12T05:10:07.034Z,45.60
2022-08-12T05:11:06.062Z,44.96
2022-08-12T05:12:06.116Z,44.79
2022-08-12T05:13:06.039Z,42.86
2022-08-12T05:14:05.981Z,42.22
2022-08-12T05:15:28.012Z,43.51
2022-08-12T05:16:09.243Z,43.51
2022-08-12T05:17:06.924Z,42.86
2022-08-12T05:18:19.465Z,45.44
2022-08-12T05:19:12.701Z,44.15
2022-08-12T05:20:06.955Z,46.89
2022-08-12T05:21:05.901Z,44.79
2022-08-12T05:22:05.902Z,43.34
2022-08-12T05:23:11.827Z,44.31
2022-08-12T05:24:07.889Z,43.02
2022-08-12T05:25:05.886Z,44.15
2022-08-12T05:26:05.864Z,42.06
2022-08-12T05:27:05.888Z,43.34
2022-08-12T05:28:05.927Z,40.93
2022-08-12T05:30:05.377Z,42.38
2022-08-12T05:30:09.356Z,40.77
2022-08-12T05:31:06.832Z,44.79
2022-08-12T05:32:05.854Z,42.86
2022-08-12T05:33:05.827Z,43.02
2022-08-12T05:34:05.855Z,42.86
2022-08-12T05:35:05.837Z,43.51
2022-08-12T05:36:05.827Z,43.67
2022-08-12T05:37:05.839Z,41.25
2022-08-12T05:38:05.815Z,47.37
2022-08-12T05:39:05.850Z,42.06
2022-08-12T05:40:10.609Z,41.25
2022-08-12T05:41:07.800Z,42.22
2022-08-12T05:42:05.755Z,42.22
2022-08-12T05:43:05.799Z,40.28
2022-08-12T05:44:05.826Z,42.22
2022-08-12T05:45:05.768Z,40.77
2022-08-12T05:46:05.764Z,40.28
2022-08-12T05:47:05.726Z,40.12
2022-08-12T05:48:05.767Z,42.22
2022-08-12T05:49:05.789Z,40.61
2022-08-12T05:50:05.718Z,42.86
2022-08-12T05:51:05.733Z,40.93
2022-08-12T05:52:05.706Z,40.28
2022-08-12T05:53:05.724Z,39.64
2022-08-12T05:54:05.716Z,42.86
2022-08-12T05:55:05.715Z,41.73
2022-08-12T05:56:05.754Z,41.73
2022-08-12T05:57:05.674Z,41.09
2022-08-12T05:58:05.681Z,42.22
2022-08-12T05:59:05.682Z,41.89
2022-08-12T06:00:05.758Z,39.96
2022-08-12T06:02:09.172Z,39.64
2022-08-12T06:02:12.128Z,39.32
2022-08-12T06:03:06.776Z,40.12
2022-08-12T06:04:05.616Z,39.96
2022-08-12T06:05:05.737Z,40.77
2022-08-12T06:06:05.608Z,40.77
2022-08-12T06:07:59.969Z,43.18
2022-08-12T06:08:06.627Z,42.22
2022-08-12T06:09:05.592Z,41.73
2022-08-12T06:10:05.614Z,41.89
2022-08-12T06:11:05.611Z,40.77
2022-08-12T06:12:06.694Z,41.25
2022-08-12T06:13:06.603Z,41.73
2022-08-12T06:14:12.098Z,42.22
2022-08-12T06:15:06.533Z,41.09
2022-08-12T06:16:05.547Z,38.83
2022-08-12T06:17:05.535Z,39.96
2022-08-12T06:18:11.908Z,39.32
2022-08-12T06:19:06.506Z,37.22
2022-08-12T06:20:27.001Z,41.25
2022-08-12T06:21:06.505Z,40.61
2022-08-12T06:22:05.533Z,41.09
2022-08-12T06:23:06.590Z,41.89
2022-08-12T06:24:05.481Z,42.06
2022-08-12T06:25:05.554Z,41.89
2022-08-12T06:26:05.467Z,41.25
2022-08-12T06:27:05.465Z,43.67
2022-08-12T06:28:07.255Z,42.22
2022-08-12T06:29:05.483Z,42.38
2022-08-12T06:30:07.957Z,42.22
2022-08-12T06:31:35.726Z,40.28
2022-08-12T06:32:07.412Z,40.12
2022-08-12T06:33:11.685Z,41.09
2022-08-12T06:35:23.651Z,41.89
2022-08-12T06:35:25.894Z,42.38
2022-08-12T06:36:06.626Z,41.25
2022-08-12T06:37:05.422Z,41.89
2022-08-12T06:38:05.368Z,39.96
2022-08-12T06:39:05.661Z,40.77
2022-08-12T06:40:06.490Z,41.57
2022-08-12T06:41:05.349Z,42.54
2022-08-12T06:42:33.163Z,39.48
2022-08-12T06:43:06.323Z,40.93
2022-08-12T06:44:07.779Z,41.09
2022-08-12T06:45:05.594Z,40.28
2022-08-12T06:46:06.339Z,41.73
2022-08-12T06:47:05.293Z,42.54
2022-08-12T06:48:05.291Z,41.09
2022-08-12T06:49:05.352Z,41.09
2022-08-12T06:50:05.291Z,41.25
2022-08-12T06:51:05.284Z,41.57
2022-08-12T06:52:05.297Z,39.32
2022-08-12T06:53:05.303Z,37.71
2022-08-12T06:54:05.252Z,39.96
2022-08-12T06:55:05.242Z,38.51
2022-08-12T06:56:09.292Z,42.22
2022-08-12T06:58:05.215Z,38.83
2022-08-12T06:58:10.363Z,39.16
2022-08-12T06:59:05.285Z,38.35
2022-08-12T07:00:05.208Z,39.16
2022-08-12T07:01:05.275Z,40.12
2022-08-12T07:02:05.240Z,40.44
2022-08-12T07:03:16.362Z,42.06
2022-08-12T07:05:07.303Z,39.64
2022-08-12T07:06:05.201Z,40.93
2022-08-12T07:07:05.177Z,41.73
2022-08-12T07:08:05.176Z,39.48
2022-08-12T07:09:06.285Z,40.93
2022-08-12T07:10:08.208Z,39.48
2022-08-12T07:11:06.258Z,42.70
2022-08-12T07:12:05.126Z,42.54
2022-08-12T07:13:05.118Z,40.44
2022-08-12T07:14:13.286Z,40.12
2022-08-12T07:15:06.167Z,40.44
2022-08-12T07:16:05.099Z,41.25
2022-08-12T07:17:05.121Z,42.22
2022-08-12T07:18:05.148Z,40.28
2022-08-12T07:19:05.124Z,41.09
2022-08-12T07:20:05.120Z,42.06
2022-08-12T07:21:05.138Z,42.54
2022-08-12T07:22:05.059Z,41.89
2022-08-12T07:23:05.117Z,41.25
2022-08-12T07:24:05.098Z,41.25
2022-08-12T07:25:05.136Z,38.99
2022-08-12T07:26:05.076Z,40.77
2022-08-12T07:27:05.071Z,38.99
2022-08-12T07:28:08.982Z,38.83
2022-08-12T07:29:06.054Z,40.61
2022-08-12T07:30:05.419Z,40.28
2022-08-12T07:31:06.006Z,40.12
2022-08-12T07:32:05.015Z,41.41
2022-08-12T07:33:05.013Z,40.28
2022-08-12T07:34:05.017Z,39.80
2022-08-12T07:35:04.986Z,40.93
2022-08-12T07:36:04.977Z,45.92
2022-08-12T07:37:04.983Z,40.61
2022-08-12T07:38:04.969Z,43.34
2022-08-12T07:39:04.984Z,41.57
2022-08-12T07:40:05.015Z,43.67
2022-08-12T07:41:05.042Z,42.70
2022-08-12T07:42:04.953Z,44.31
2022-08-12T07:43:04.949Z,44.15
2022-08-12T07:44:05.062Z,42.70
2022-08-12T07:45:04.996Z,42.54
2022-08-12T07:46:04.953Z,40.93
2022-08-12T07:47:04.919Z,40.93
2022-08-12T07:48:04.914Z,41.89
2022-08-12T07:49:04.913Z,43.02
2022-08-12T07:50:06.831Z,41.25
2022-08-12T07:51:05.881Z,41.25
2022-08-12T07:52:04.880Z,42.22
2022-08-12T07:53:04.877Z,43.02
2022-08-12T07:54:04.855Z,41.57
2022-08-12T07:55:04.896Z,41.25
2022-08-12T07:56:04.966Z,42.22
2022-08-12T07:57:04.833Z,41.25
2022-08-12T07:58:04.826Z,41.25
2022-08-12T07:59:04.827Z,42.38
2022-08-12T08:00:04.871Z,42.22
2022-08-12T08:01:04.807Z,41.73
2022-08-12T08:02:05.894Z,43.02
2022-08-12T08:03:04.843Z,43.83
2022-08-12T08:04:04.838Z,43.51
2022-08-12T08:05:04.834Z,42.22
2022-08-12T08:06:04.786Z,43.18
2022-08-12T08:07:04.801Z,43.83
2022-08-12T08:08:04.789Z,43.18
2022-08-12T08:09:04.759Z,42.22
2022-08-12T08:10:04.756Z,41.89
2022-08-12T08:11:04.739Z,42.38
2022-08-12T08:12:04.732Z,43.02
2022-08-12T08:13:04.801Z,43.67
2022-08-12T08:14:04.785Z,43.34
2022-08-12T08:15:04.737Z,42.38
2022-08-12T08:16:04.855Z,43.83
2022-08-12T08:17:04.699Z,42.86
2022-08-12T08:18:04.861Z,43.51
2022-08-12T08:19:04.735Z,42.38
2022-08-12T08:20:04.731Z,42.54
2022-08-12T08:21:04.714Z,42.86
2022-08-12T08:22:04.702Z,41.09
2022-08-12T08:23:04.751Z,41.25
2022-08-12T08:24:05.465Z,41.73
2022-08-12T08:25:05.647Z,41.57
2022-08-12T08:26:05.688Z,42.06
2022-08-12T08:27:04.662Z,42.22
2022-08-12T08:28:04.680Z,41.89
2022-08-12T08:29:04.675Z,40.77
2022-08-12T08:30:04.607Z,40.77
2022-08-12T08:31:04.607Z,41.57
2022-08-12T08:32:04.603Z,41.89
2022-08-12T08:33:17.294Z,41.73
2022-08-12T08:34:47.153Z,43.02
2022-08-12T08:35:06.600Z,41.09
2022-08-12T08:36:04.575Z,40.77
2022-08-12T08:37:07.533Z,42.06
2022-08-12T08:38:04.557Z,41.57
2022-08-12T08:39:04.595Z,41.09
2022-08-12T08:40:04.587Z,40.77
2022-08-12T08:41:04.668Z,41.25
2022-08-12T08:42:14.109Z,41.09
2022-08-12T08:43:05.547Z,40.93
2022-08-12T08:44:04.531Z,41.41
2022-08-12T08:45:04.556Z,41.41
2022-08-12T08:46:04.554Z,40.61
2022-08-12T08:47:04.518Z,40.28
2022-08-12T08:48:04.523Z,42.22
2022-08-12T08:49:04.500Z,41.25
2022-08-12T08:50:04.639Z,41.41
2022-08-12T08:51:05.158Z,43.99
2022-08-12T08:52:04.500Z,42.06
2022-08-12T08:53:04.487Z,41.41
2022-08-12T08:54:04.613Z,43.18
2022-08-12T08:55:04.492Z,42.22
2022-08-12T08:56:05.567Z,41.73
2022-08-12T08:57:05.637Z,43.02
2022-08-12T08:58:04.469Z,43.02
2022-08-12T08:59:04.690Z,43.18
2022-08-12T09:00:04.444Z,43.18
2022-08-12T09:01:04.456Z,43.34
2022-08-12T09:02:04.494Z,44.31
2022-08-12T09:03:04.595Z,46.89
2022-08-12T09:05:08.343Z,46.73
2022-08-12T09:05:12.244Z,43.02
2022-08-12T09:06:05.393Z,43.34
2022-08-12T09:08:14.236Z,44.79
2022-08-12T09:09:13.029Z,43.51
2022-08-12T09:10:05.384Z,43.51
2022-08-12T09:11:04.372Z,44.47
2022-08-12T09:12:10.941Z,44.47
2022-08-12T09:13:06.174Z,45.76
2022-08-12T09:14:12.233Z,45.28
2022-08-12T09:15:07.136Z,44.63
2022-08-12T09:16:05.347Z,44.63
2022-08-12T09:17:04.413Z,44.96
2022-08-12T09:18:04.362Z,44.31
2022-08-12T09:19:04.377Z,44.15
2022-08-12T09:20:04.385Z,43.99
2022-08-12T09:21:06.242Z,44.96
2022-08-12T09:24:06.255Z,44.96
2022-08-12T09:25:06.267Z,44.96
2022-08-12T09:26:04.930Z,47.53
2022-08-12T09:27:04.272Z,47.70
2022-08-12T09:28:06.001Z,45.12
2022-08-12T09:29:12.442Z,45.76
2022-08-12T09:30:10.587Z,44.47
2022-08-12T09:31:05.311Z,43.83
2022-08-12T09:32:08.677Z,45.28
2022-08-12T09:33:18.350Z,44.15
2022-08-12T09:34:26.292Z,44.31
2022-08-12T09:35:05.252Z,44.15
2022-08-12T09:36:05.647Z,46.41
2022-08-12T09:37:19.539Z,46.89
2022-08-12T09:38:05.202Z,47.05
2022-08-12T09:40:00.814Z,46.08
2022-08-12T09:41:01.505Z,46.41
2022-08-12T09:42:33.621Z,47.21
2022-08-12T09:42:33.857Z,45.92
2022-08-12T09:43:17.559Z,47.21
2022-08-12T09:44:06.338Z,44.96
2022-08-12T09:45:17.890Z,44.79
2022-08-12T09:46:21.792Z,44.47
2022-08-12T09:47:10.439Z,44.47
2022-08-12T09:48:05.217Z,44.15
2022-08-12T09:49:13.168Z,47.05
2022-08-12T09:50:06.139Z,43.99
2022-08-12T09:51:11.061Z,44.15
2022-08-12T09:52:05.159Z,45.12
2022-08-12T09:53:04.749Z,45.44
2022-08-12T09:54:08.479Z,45.44
2022-08-12T09:55:05.135Z,43.51
2022-08-12T09:56:39.655Z,45.28
2022-08-12T09:58:07.522Z,45.12
2022-08-12T09:58:44.952Z,43.83
2022-08-12T09:59:05.113Z,45.28
2022-08-12T10:00:15.278Z,46.25
2022-08-12T10:01:06.625Z,46.08
2022-08-12T10:02:43.307Z,45.28
2022-08-12T10:03:05.605Z,45.92
2022-08-12T10:04:05.666Z,46.25
2022-08-12T10:05:05.082Z,46.57
2022-08-12T10:06:27.271Z,45.28
2022-08-12T10:07:05.370Z,44.15
2022-08-12T10:08:05.036Z,44.79
2022-08-12T10:09:04.045Z,45.28
2022-08-12T10:10:04.107Z,43.67
2022-08-12T10:11:04.020Z,44.96
2022-08-12T10:12:11.722Z,47.37
2022-08-12T10:13:08.387Z,45.60
2022-08-12T10:14:05.194Z,43.99
2022-08-12T10:15:04.042Z,43.83
2022-08-12T10:16:05.570Z,45.44
2022-08-12T10:17:04.004Z,44.79
2022-08-12T10:18:07.306Z,45.12
2022-08-12T10:19:03.972Z,44.31
2022-08-12T10:20:04.091Z,45.44
2022-08-12T10:21:04.961Z,44.79
2022-08-12T10:22:04.015Z,44.79
2022-08-12T10:23:04.101Z,45.12
2022-08-12T10:24:03.946Z,44.63
2022-08-12T10:25:03.975Z,44.15
2022-08-12T10:26:34.604Z,42.38
2022-08-12T10:27:06.103Z,44.63
2022-08-12T10:28:09.028Z,42.54
2022-08-12T10:30:01.463Z,43.67
2022-08-12T10:30:39.847Z,45.60
2022-08-12T10:31:05.917Z,45.92
2022-08-12T10:32:20.613Z,47.37
2022-08-12T10:33:18.285Z,44.15
2022-08-12T10:34:06.414Z,43.34
2022-08-12T10:35:03.872Z,43.83
2022-08-12T10:36:03.884Z,43.34
2022-08-12T10:37:22.887Z,43.34
2022-08-12T10:38:34.202Z,43.34
2022-08-12T10:40:02.225Z,43.34
2022-08-12T10:40:09.834Z,44.31
2022-08-12T10:41:04.889Z,43.18
2022-08-12T10:42:04.924Z,42.70
2022-08-12T10:43:03.828Z,43.83
2022-08-12T10:44:03.823Z,45.12
2022-08-12T10:45:03.869Z,45.60
2022-08-12T10:46:05.090Z,43.83
2022-08-12T10:47:26.591Z,44.79
2022-08-12T10:48:19.678Z,42.54
2022-08-12T10:49:06.943Z,42.86
2022-08-12T10:50:28.207Z,45.12
2022-08-12T10:52:05.423Z,45.28
2022-08-12T10:52:34.519Z,43.51
2022-08-12T10:53:05.904Z,41.73
2022-08-12T10:54:04.758Z,41.89
2022-08-12T10:55:06.942Z,42.70
2022-08-12T10:56:04.788Z,43.83
2022-08-12T10:57:03.781Z,43.34
2022-08-12T10:58:15.040Z,45.76
2022-08-12T10:59:04.763Z,43.83
2022-08-12T11:00:34.503Z,42.54
2022-08-12T11:01:50.330Z,44.47
2022-08-12T11:04:24.253Z,42.06
2022-08-12T11:04:26.953Z,43.18
2022-08-12T11:04:27.054Z,44.47
2022-08-12T11:07:02.659Z,43.83
2022-08-12T11:07:08.363Z,40.77
2022-08-12T11:08:34.024Z,44.31
2022-08-12T11:08:36.294Z,43.02
2022-08-12T11:09:07.215Z,46.89
2022-08-12T11:10:04.784Z,45.28
2022-08-12T11:11:09.147Z,44.79
2022-08-12T11:12:35.931Z,41.73
2022-08-12T11:13:09.372Z,42.86
2022-08-12T11:14:04.662Z,42.06
2022-08-12T11:15:18.454Z,41.57
2022-08-12T11:16:22.549Z,42.06
2022-08-12T11:17:43.541Z,43.83
2022-08-12T11:18:04.562Z,43.83
2022-08-12T11:19:05.607Z,43.02
2022-08-12T11:20:03.633Z,44.31
2022-08-12T11:21:05.843Z,45.76
2022-08-12T11:22:03.537Z,45.60
2022-08-12T11:23:35.936Z,44.63
2022-08-12T11:24:04.523Z,43.51
2022-08-12T11:25:10.458Z,43.83
2022-08-12T11:26:06.263Z,46.41
2022-08-12T11:27:07.950Z,44.31
2022-08-12T11:28:04.574Z,45.60
2022-08-12T11:29:05.950Z,44.79
2022-08-12T11:30:07.015Z,44.15
2022-08-12T11:31:04.501Z,42.22
2022-08-12T11:32:04.168Z,41.57
2022-08-12T11:33:03.495Z,42.54
2022-08-12T11:34:52.924Z,43.02
2022-08-12T11:35:04.530Z,42.70
2022-08-12T11:36:03.490Z,42.86
2022-08-12T11:37:04.638Z,43.83
2022-08-12T11:38:03.647Z,42.86
2022-08-12T11:39:05.106Z,43.83
2022-08-12T11:40:03.744Z,47.37
2022-08-12T11:41:03.426Z,44.47
2022-08-12T11:42:03.460Z,44.31
2022-08-12T11:43:20.035Z,42.38
2022-08-12T11:44:35.608Z,43.02
2022-08-12T11:45:05.093Z,43.34
2022-08-12T11:46:03.374Z,47.05
2022-08-12T11:47:03.407Z,45.44
2022-08-12T11:48:04.356Z,40.77
2022-08-12T11:49:03.404Z,41.25
2022-08-12T11:50:03.332Z,43.34
2022-08-12T11:51:03.367Z,44.15
2022-08-12T11:52:03.424Z,43.34
2022-08-12T11:53:03.331Z,44.31
2022-08-12T11:54:03.317Z,44.63
2022-08-12T11:55:03.350Z,41.89
2022-08-12T11:56:03.321Z,47.21
2022-08-12T11:58:07.006Z,45.44
2022-08-12T11:58:48.947Z,45.28
2022-08-12T12:02:05.858Z,41.57
2022-08-12T12:03:04.373Z,42.86
2022-08-12T12:04:03.278Z,45.12
2022-08-12T12:05:04.082Z,46.89
2022-08-12T12:06:03.303Z,44.31
2022-08-12T12:07:07.039Z,43.34
2022-08-12T12:08:38.515Z,43.02
2022-08-12T12:09:04.297Z,43.02
2022-08-12T12:10:03.265Z,42.06
2022-08-12T12:11:03.203Z,43.34
2022-08-12T12:12:04.484Z,42.38
2022-08-12T12:13:03.281Z,40.77
2022-08-12T12:14:11.105Z,42.70
2022-08-12T12:15:06.965Z,44.15
2022-08-12T12:16:05.900Z,45.76
2022-08-12T12:17:03.163Z,45.12
2022-08-12T12:18:04.153Z,47.05
2022-08-12T12:19:03.189Z,45.28
2022-08-12T12:20:03.181Z,43.99
2022-08-12T12:21:03.978Z,44.96
2022-08-12T12:22:03.179Z,43.51
2022-08-12T12:23:03.218Z,46.08
2022-08-12T12:24:03.132Z,44.15
2022-08-12T12:25:12.731Z,45.28
2022-08-12T12:26:07.991Z,46.89
2022-08-12T12:27:03.141Z,45.28
2022-08-12T12:28:04.891Z,43.83
2022-08-12T12:29:03.442Z,43.83
2022-08-12T12:30:19.355Z,44.79
2022-08-12T12:31:04.393Z,45.60
2022-08-12T12:32:10.223Z,45.12
2022-08-12T12:33:04.081Z,45.28
2022-08-12T12:34:04.115Z,44.15
2022-08-12T12:35:44.438Z,45.44
2022-08-12T12:36:18.630Z,43.51
2022-08-12T12:37:04.129Z,44.79
2022-08-12T12:38:05.527Z,44.31
2022-08-12T12:39:06.588Z,43.18
2022-08-12T12:40:04.084Z,45.44
2022-08-12T12:41:16.671Z,44.31
2022-08-12T12:42:43.102Z,43.34
2022-08-12T12:43:05.335Z,42.22
2022-08-12T12:44:04.692Z,42.22
2022-08-12T12:45:03.019Z,40.77
2022-08-12T12:46:03.989Z,39.96
2022-08-12T12:47:03.992Z,41.89
2022-08-12T12:48:04.038Z,42.86
2022-08-12T12:49:10.857Z,44.31
2022-08-12T12:50:06.187Z,43.83
2022-08-12T12:51:02.967Z,46.89
2022-08-12T12:52:19.910Z,49.31
2022-08-12T12:53:04.020Z,52.69
2022-08-12T12:54:08.062Z,51.88
2022-08-12T12:55:04.962Z,53.17
2022-08-12T12:56:02.925Z,45.60
2022-08-12T12:57:02.907Z,43.34
2022-08-12T12:58:02.902Z,46.25
2022-08-12T12:59:02.932Z,46.08